createdAt,value
2022-08-12T00:02:41.551Z,101814.16
2022-08-12T00:05:23.744Z,101820.75
2022-08-12T00:08:05.077Z,101813.88
2022-08-12T00:10:47.853Z,101816.78
2022-08-12T00:13:29.969Z,101820.09
2022-08-12T00:16:12.611Z,101822.41
2022-08-12T00:18:54.868Z,101823.72
2022-08-12T00:21:38.672Z,101823.72
2022-08-12T00:24:19.864Z,101821.44
2022-08-12T00:27:02.871Z,101813.19
2022-08-12T00:29:47.804Z,101819.22
2022-08-12T00:32:35.890Z,101817.66
2022-08-12T00:35:17.850Z,101814.53
2022-08-12T00:37:59.896Z,101821.38
2022-08-12T00:40:42.356Z,101822.72
2022-08-12T00:43:12.188Z,101815.69
2022-08-12T00:45:56.445Z,101818.16
2022-08-12T00:48:20.691Z,101823.72
2022-08-12T00:50:44.592Z,101820.16
2022-08-12T00:53:10.852Z,101814.16
2022-08-12T00:55:34.639Z,101818.31
2022-08-12T00:57:58.571Z,101814.75
2022-08-12T01:00:26.323Z,101817.72
2022-08-12T01:03:12.449Z,101813.28
2022-08-12T01:05:56.147Z,101813.75
2022-08-12T01:08:37.087Z,101808.75
2022-08-12T01:11:18.533Z,101806.75
2022-08-12T01:13:48.508Z,101811.47
2022-08-12T01:16:14.525Z,101804.78
2022-08-12T01:18:41.724Z,101806.63
2022-08-12T01:21:16.819Z,101806.78
2022-08-12T01:24:29.532Z,101810.94
2022-08-12T01:26:48.756Z,101811.09
2022-08-12T01:29:17.924Z,101815.66
2022-08-12T01:31:44.837Z,101813.50
2022-08-12T01:34:35.907Z,101812.09
2022-08-12T01:37:00.110Z,101815.09
2022-08-12T01:39:29.050Z,101809.38
2022-08-12T01:41:56.021Z,101811.13
2022-08-12T01:44:21.546Z,101814.81
2022-08-12T01:46:58.684Z,101804.81
2022-08-12T01:49:45.108Z,101808.53
2022-08-12T01:52:22.605Z,101810.81
2022-08-12T01:54:47.183Z,101802.81
2022-08-12T01:57:58.794Z,101809.38
2022-08-12T02:00:14.041Z,101813.97
2022-08-12T02:02:42.832Z,101813.25
2022-08-12T02:05:35.610Z,101812.81
2022-08-12T02:08:40.425Z,101805.94
2022-08-12T02:11:18.560Z,101807.09
2022-08-12T02:14:28.641Z,101815.66
2022-08-12T02:17:55.819Z,101809.38
2022-08-12T02:20:15.608Z,101806.09
2022-08-12T02:22:44.242Z,101806.66
2022-08-12T02:25:12.167Z,101805.94
2022-08-12T02:27:40.783Z,101806.78
2022-08-12T02:30:08.955Z,101804.34
2022-08-12T02:32:40.701Z,101803.75
2022-08-12T02:35:05.105Z,101808.31
2022-08-12T02:37:30.944Z,101803.59
2022-08-12T02:39:57.993Z,101808.16
2022-08-12T02:42:24.008Z,101810.88
2022-08-12T02:44:52.857Z,101813.47
2022-08-12T02:47:59.038Z,101807.31
2022-08-12T02:50:09.103Z,101803.88
2022-08-12T02:52:34.688Z,101802.28
2022-08-12T02:55:12.868Z,101801.00
2022-08-12T02:57:53.464Z,101800.56
2022-08-12T03:00:18.995Z,101798.00
2022-08-12T03:02:47.860Z,101799.81
2022-08-12T03:05:15.405Z,101807.13
2022-08-12T03:07:59.839Z,101803.53
2022-08-12T03:10:36.592Z,101807.38
2022-08-12T03:13:04.055Z,101803.25
2022-08-12T03:15:28.964Z,101805.09
2022-08-12T03:18:25.536Z,101804.38
2022-08-12T03:20:43.241Z,101818.34
2022-08-12T03:23:09.031Z,101813.63
2022-08-12T03:25:38.659Z,101814.34
2022-08-12T03:28:03.343Z,101811.75
2022-08-12T03:30:31.456Z,101810.88
2022-08-12T03:32:59.201Z,101820.88
2022-08-12T03:35:40.657Z,101820.00
2022-08-12T03:38:09.627Z,101814.75
2022-08-12T03:40:59.800Z,101814.59
2022-08-12T03:43:47.559Z,101814.44
2022-08-12T03:46:39.007Z,101816.03
2022-08-12T03:49:22.152Z,101822.28
2022-08-12T03:52:04.093Z,101823.56
2022-08-12T03:54:45.352Z,101823.81
2022-08-12T03:57:26.788Z,101818.81
2022-08-12T04:00:07.686Z,101822.50
2022-08-12T04:02:34.661Z,101820.56
2022-08-12T04:04:59.987Z,101828.03
2022-08-12T04:07:24.448Z,101812.66
2022-08-12T04:09:48.681Z,101826.69
2022-08-12T04:12:39.496Z,101820.91
2022-08-12T04:15:04.023Z,101822.41
2022-08-12T04:17:28.954Z,101815.59
2022-08-12T04:19:53.493Z,101821.47
2022-08-12T04:22:18.883Z,101820.50
2022-08-12T04:24:50.378Z,101818.50
2022-08-12T04:27:14.491Z,101818.81
2022-08-12T04:30:30.487Z,101820.97
2022-08-12T04:32:22.997Z,101824.97
2022-08-12T04:34:47.080Z,101826.38
2022-08-12T04:37:12.223Z,101826.97
2022-08-12T04:39:39.509Z,101829.56
2022-08-12T04:42:03.373Z,101832.59
2022-08-12T04:44:27.503Z,101839.72
2022-08-12T04:46:51.276Z,101834.88
2022-08-12T04:49:15.012Z,101824.38
2022-08-12T04:51:38.912Z,101832.94
2022-08-12T04:54:03.636Z,101825.97
2022-08-12T04:56:29.543Z,101825.69
2022-08-12T04:59:00.574Z,101825.97
2022-08-12T05:01:27.999Z,101825.31
2022-08-12T05:03:53.276Z,101828.59
2022-08-12T05:06:26.277Z,101827.88
2022-08-12T05:08:52.305Z,101825.50
2022-08-12T05:11:16.260Z,101827.50
2022-08-12T05:13:42.745Z,101824.94
2022-08-12T05:16:09.299Z,101825.97
2022-08-12T05:18:33.884Z,101826.25
2022-08-12T05:21:02.223Z,101829.25
2022-08-12T05:23:25.979Z,101822.09
2022-08-12T05:25:56.319Z,101833.41
2022-08-12T05:28:20.413Z,101835.69
2022-08-12T05:30:46.880Z,101830.09
2022-08-12T05:33:11.801Z,101829.38
2022-08-12T05:35:40.115Z,101831.31
2022-08-12T05:38:17.804Z,101831.88
2022-08-12T05:40:42.248Z,101829.00
2022-08-12T05:43:06.555Z,101832.22
2022-08-12T05:45:30.372Z,101830.50
2022-08-12T05:47:55.588Z,101828.66
2022-08-12T05:50:19.792Z,101827.53
2022-08-12T05:52:44.139Z,101829.72
2022-08-12T05:55:08.933Z,101838.50
2022-08-12T05:57:35.504Z,101832.66
2022-08-12T05:59:59.670Z,101831.56
2022-08-12T06:02:23.440Z,101835.19
2022-08-12T06:04:49.631Z,101845.41
2022-08-12T06:08:00.725Z,101846.88
2022-08-12T06:09:58.063Z,101853.22
2022-08-12T06:12:23.479Z,101843.47
2022-08-12T06:14:48.284Z,101844.50
2022-08-12T06:17:12.320Z,101848.16
2022-08-12T06:20:28.199Z,101851.50
2022-08-12T06:22:21.522Z,101849.34
2022-08-12T06:24:45.282Z,101852.94
2022-08-12T06:27:09.392Z,101847.97
2022-08-12T06:30:07.225Z,101842.25
2022-08-12T06:32:18.357Z,101848.53
2022-08-12T06:35:25.025Z,101848.38
2022-08-12T06:37:28.000Z,101850.00
2022-08-12T06:39:51.831Z,101849.78
2022-08-12T06:42:33.659Z,101851.19
2022-08-12T06:44:57.436Z,101855.41
2022-08-12T06:47:22.240Z,101849.03
2022-08-12T06:49:46.052Z,101853.22
2022-08-12T06:52:09.732Z,101849.00
2022-08-12T06:54:35.503Z,101852.06
2022-08-12T06:57:04.249Z,101842.00
2022-08-12T06:59:29.356Z,101840.56
2022-08-12T07:01:53.703Z,101842.81
2022-08-12T07:04:35.843Z,101836.75
2022-08-12T07:07:01.167Z,101838.75
2022-08-12T07:10:04.089Z,101835.84
2022-08-12T07:12:19.862Z,101836.06
2022-08-12T07:14:48.411Z,101840.19
2022-08-12T07:17:13.141Z,101836.19
2022-08-12T07:19:45.240Z,101833.66
2022-08-12T07:22:10.937Z,101832.22
2022-08-12T07:24:34.775Z,101829.28
2022-08-12T07:26:58.586Z,101834.66
2022-08-12T07:29:25.514Z,101841.72
2022-08-12T07:32:09.447Z,101833.09
2022-08-12T07:34:33.410Z,101843.28
2022-08-12T07:36:57.191Z,101838.88
2022-08-12T07:39:21.372Z,101841.06
2022-08-12T07:41:45.257Z,101846.81
2022-08-12T07:44:12.663Z,101848.09
2022-08-12T07:46:40.769Z,101844.91
2022-08-12T07:49:08.440Z,101839.38
2022-08-12T07:51:33.108Z,101837.03
2022-08-12T07:54:02.978Z,101834.47
2022-08-12T07:56:28.390Z,101837.66
2022-08-12T07:58:53.858Z,101831.50
2022-08-12T08:01:22.887Z,101833.41
2022-08-12T08:04:05.431Z,101832.38
2022-08-12T08:06:31.330Z,101827.03
2022-08-12T08:08:56.588Z,101833.41
2022-08-12T08:11:37.744Z,101832.97
2022-08-12T08:14:04.429Z,101833.22
2022-08-12T08:16:28.179Z,101831.91
2022-08-12T08:18:55.811Z,101832.78
2022-08-12T08:21:22.063Z,101831.31
2022-08-12T08:24:05.276Z,101825.72
2022-08-12T08:26:29.264Z,101827.47
2022-08-12T08:29:01.774Z,101829.59
2022-08-12T08:31:28.056Z,101833.66
2022-08-12T08:34:04.157Z,101828.53
2022-08-12T08:36:40.322Z,101817.50
2022-08-12T08:39:06.117Z,101831.94
2022-08-12T08:42:16.578Z,101823.66
2022-08-12T08:44:31.758Z,101813.91
2022-08-12T08:46:55.808Z,101813.91
2022-08-12T08:49:23.008Z,101822.81
2022-08-12T08:51:47.123Z,101821.94
2022-08-12T08:54:11.589Z,101820.47
2022-08-12T08:56:42.720Z,101828.97
2022-08-12T08:59:06.504Z,101823.66
2022-08-12T09:01:37.570Z,101827.91
2022-08-12T09:05:07.833Z,101820.47
2022-08-12T09:06:53.627Z,101823.66
2022-08-12T09:09:19.582Z,101816.44
2022-08-12T09:12:10.651Z,101815.56
2022-08-12T09:14:36.016Z,101811.56
2022-08-12T09:16:59.847Z,101808.16
2022-08-12T09:19:27.735Z,101813.91
2022-08-12T09:21:54.890Z,101817.94
2022-08-12T09:24:19.953Z,101811.34
2022-08-12T09:26:46.387Z,101808.75
2022-08-12T09:29:12.469Z,101806.56
2022-08-12T09:32:03.970Z,101800.13
2022-08-12T09:34:29.400Z,101808.09
2022-08-12T09:37:02.422Z,101806.06
2022-08-12T09:40:06.399Z,101809.03
2022-08-12T09:42:39.128Z,101801.19
2022-08-12T09:45:23.389Z,101790.75
2022-08-12T09:47:57.066Z,101785.84
2022-08-12T09:50:23.971Z,101783.81
2022-08-12T09:53:05.836Z,101782.78
2022-08-12T09:56:06.918Z,101791.22
2022-08-12T09:58:57.654Z,101789.38
2022-08-12T10:01:06.533Z,101790.31
2022-08-12T10:04:03.534Z,101787.56
2022-08-12T10:06:32.419Z,101776.09
2022-08-12T10:09:01.393Z,101775.75
2022-08-12T10:12:10.101Z,101760.34
2022-08-12T10:14:34.214Z,101751.81
2022-08-12T10:16:59.929Z,101759.34
2022-08-12T10:19:36.304Z,101758.72
2022-08-12T10:22:01.665Z,101747.50
2022-08-12T10:24:26.825Z,101752.91
2022-08-12T10:27:08.468Z,101755.41
2022-08-12T10:30:37.671Z,101758.53
2022-08-12T10:32:44.747Z,101747.78
2022-08-12T10:35:09.790Z,101742.34
2022-08-12T10:38:34.060Z,101741.28
2022-08-12T10:40:28.621Z,101742.75
2022-08-12T10:43:16.959Z,101754.56
2022-08-12T10:45:42.629Z,101734.16
2022-08-12T10:48:21.295Z,101725.72
2022-08-12T10:50:58.410Z,101729.69
2022-08-12T10:53:44.164Z,101735.84
2022-08-12T10:56:11.900Z,101719.63
2022-08-12T10:58:37.915Z,101713.75
2022-08-12T11:01:50.501Z,101722.72
2022-08-12T11:04:23.264Z,101716.66
2022-08-12T11:07:08.081Z,101717.84
2022-08-12T11:09:18.420Z,101703.59
2022-08-12T11:12:57.257Z,101716.22
2022-08-12T11:14:52.354Z,101712.84
2022-08-12T11:17:42.828Z,101708.13
2022-08-12T11:20:00.163Z,101699.50
2022-08-12T11:22:26.141Z,101713.06
2022-08-12T11:24:55.366Z,101703.53
2022-08-12T11:27:21.409Z,101701.59
2022-08-12T11:30:00.446Z,101699.84
2022-08-12T11:32:29.977Z,101693.13
2022-08-12T11:35:02.605Z,101704.56
2022-08-12T11:37:58.430Z,101701.78
2022-08-12T11:40:11.222Z,101689.00
2022-08-12T11:42:39.733Z,101690.69
2022-08-12T11:45:12.195Z,101686.69
2022-08-12T11:47:40.806Z,101690.00
2022-08-12T11:50:05.080Z,101681.84
2022-08-12T11:53:02.380Z,101684.78
2022-08-12T11:55:15.019Z,101682.88
2022-08-12T11:58:51.133Z,101681.47
2022-08-12T12:03:19.207Z,101680.41
2022-08-12T12:05:46.859Z,101680.63
2022-08-12T12:08:38.649Z,101675.56
2022-08-12T12:10:56.147Z,101681.63
2022-08-12T12:13:23.245Z,101673.84
2022-08-12T12:16:07.131Z,101675.47
2022-08-12T12:18:34.968Z,101677.38
2022-08-12T12:21:01.555Z,101675.38
2022-08-12T12:23:29.552Z,101671.47
2022-08-12T12:25:59.458Z,101672.69
2022-08-12T12:28:37.829Z,101664.47
2022-08-12T12:31:04.389Z,101656.72
2022-08-12T12:33:57.133Z,101677.75
2022-08-12T12:36:24.026Z,101663.22
2022-08-12T12:38:53.133Z,101657.47
2022-08-12T12:41:18.625Z,101651.44
2022-08-12T12:43:56.341Z,101649.22
2022-08-12T12:46:27.175Z,101647.16
2022-08-12T12:48:51.170Z,101644.94
2022-08-12T12:51:22.124Z,101642.09
2022-08-12T12:54:07.425Z,101638.97
2022-08-12T12:56:34.611Z,101641.38
2022-08-12T12:59:00.891Z,101642.06
2022-08-12T13:01:31.110Z,101639.53
2022-08-12T13:04:01.894Z,101649.19
2022-08-12T13:06:30.237Z,101640.22
2022-08-12T13:08:54.927Z,101643.63
2022-08-12T13:11:21.254Z,101636.28
2022-08-12T13:14:10.174Z,101632.78
2022-08-12T13:16:43.838Z,101641.03
2022-08-12T13:19:07.947Z,101637.44
2022-08-12T13:21:36.642Z,101640.53
2022-08-12T13:24:09.978Z,101646.50
2022-08-12T13:26:35.171Z,101648.63
2022-08-12T13:29:01.247Z,101636.88
2022-08-12T13:31:27.152Z,101644.00
2022-08-12T13:34:32.053Z,101635.41
2022-08-12T13:36:37.319Z,101640.63
2022-08-12T13:39:02.274Z,101633.28
2022-08-12T13:41:35.851Z,101624.78
2022-08-12T13:43:59.811Z,101625.59
2022-08-12T13:46:25.503Z,101623.44
2022-08-12T13:48:49.286Z,101626.53
2022-08-12T13:51:14.483Z,101627.22
2022-08-12T13:53:58.982Z,101620.28
2022-08-12T13:56:24.855Z,101619.81
2022-08-12T13:58:54.391Z,101613.16
2022-08-12T14:01:20.599Z,101608.84
2022-08-12T14:03:50.992Z,101616.72
2022-08-12T14:06:18.991Z,101620.03
2022-08-12T14:08:42.883Z,101610.41
2022-08-12T14:11:06.932Z,101607.97
2022-08-12T14:14:03.470Z,101611.69
2022-08-12T14:16:47.187Z,101608.88
2022-08-12T14:19:18.467Z,101607.88
2022-08-12T14:21:59.218Z,101605.31
2022-08-12T14:24:27.020Z,101616.03
2022-08-12T14:26:51.047Z,101608.06
2022-08-12T14:29:21.726Z,101618.41
2022-08-12T14:31:59.409Z,101614.78
2022-08-12T14:34:28.270Z,101602.97
2022-08-12T14:36:53.960Z,101612.69
2022-08-12T14:39:18.091Z,101603.53
2022-08-12T14:41:48.168Z,101613.28
2022-08-12T14:44:59.458Z,101601.72
2022-08-12T14:46:57.079Z,101598.09
2022-08-12T14:50:33.763Z,101592.34
2022-08-12T14:53:41.273Z,101591.31
2022-08-12T14:57:57.212Z,101587.16
2022-08-12T15:00:53.457Z,101589.44
2022-08-12T15:03:18.047Z,101584.00
2022-08-12T15:06:05.542Z,101580.34
2022-08-12T15:08:33.487Z,101571.75
2022-08-12T15:10:59.883Z,101565.81
2022-08-12T15:13:26.356Z,101555.03
2022-08-12T15:15:52.744Z,101552.38
2022-08-12T15:18:21.238Z,101561.81
2022-08-12T15:20:46.011Z,101559.41
2022-08-12T15:23:18.118Z,101555.97
2022-08-12T15:25:47.844Z,101557.19
2022-08-12T15:28:22.259Z,101549.72
2022-08-12T15:30:46.235Z,101546.41
2022-08-12T15:33:13.006Z,101547.50
2022-08-12T15:35:52.010Z,101547.81
2022-08-12T15:38:20.596Z,101540.41
2022-08-12T15:40:51.327Z,101543.19
2022-08-12T15:44:16.119Z,101541.44
2022-08-12T15:46:00.375Z,101534.31
2022-08-12T15:48:25.486Z,101540.53
2022-08-12T15:50:55.564Z,101546.22
2022-08-12T15:53:40.804Z,101539.84
2022-08-12T15:56:12.703Z,101542.50
2022-08-12T15:58:38.308Z,101536.34
2022-08-12T16:01:04.300Z,101533.09
2022-08-12T16:03:46.102Z,101536.09
2022-08-12T16:06:36.346Z,101538.75
2022-08-12T16:09:02.184Z,101531.53
2022-08-12T16:11:27.755Z,101528.16
2022-08-12T16:14:04.896Z,101534.00
2022-08-12T16:16:35.503Z,101539.22
2022-08-12T16:19:09.089Z,101538.16
2022-08-12T16:21:50.305Z,101539.59
2022-08-12T16:24:18.639Z,101542.09
2022-08-12T16:26:45.219Z,101545.84
2022-08-12T16:29:18.383Z,101534.47
2022-08-12T16:31:42.138Z,101541.25
2022-08-12T16:34:06.411Z,101543.81
2022-08-12T16:36:34.733Z,101536.09
2022-08-12T16:39:01.497Z,101538.53
2022-08-12T16:41:28.259Z,101538.50
2022-08-12T16:43:59.922Z,101534.97
2022-08-12T16:46:32.166Z,101523.13
2022-08-12T16:48:56.990Z,101529.69
2022-08-12T16:51:20.767Z,101529.19
2022-08-12T16:53:45.689Z,101519.69
2022-08-12T16:56:12.356Z,101517.31
2022-08-12T16:58:37.063Z,101528.41
2022-08-12T17:01:02.504Z,101517.78
2022-08-12T17:03:28.721Z,101514.78
2022-08-12T17:05:54.968Z,101514.25
2022-08-12T17:08:21.592Z,101505.97
2022-08-12T17:10:54.144Z,101500.81
2022-08-12T17:13:19.523Z,101506.28
2022-08-12T17:15:56.769Z,101501.25
2022-08-12T17:18:42.173Z,101505.91
2022-08-12T17:21:10.109Z,101504.09
2022-08-12T17:23:48.644Z,101500.81
2022-08-12T17:26:19.488Z,101498.91
2022-08-12T17:28:52.378Z,101493.19
2022-08-12T17:31:18.328Z,101493.81
2022-08-12T17:34:05.822Z,101496.16
2022-08-12T17:36:40.331Z,101499.66
2022-08-12T17:39:09.366Z,101493.72
2022-08-12T17:41:56.474Z,101492.44
2022-08-12T17:44:20.952Z,101490.03
2022-08-12T17:46:45.807Z,101496.16
2022-08-12T17:50:02.023Z,101496.94
2022-08-12T17:52:07.566Z,101498.91
2022-08-12T17:54:37.220Z,101489.09
2022-08-12T17:57:01.277Z,101487.84
2022-08-12T17:59:48.005Z,101489.72
2022-08-12T18:02:13.601Z,101492.69
2022-08-12T18:05:09.787Z,101492.47
2022-08-12T18:07:27.940Z,101498.41
2022-08-12T18:09:53.288Z,101491.50
2022-08-12T18:12:35.634Z,101493.84
2022-08-12T18:15:01.889Z,101510.03
2022-08-12T18:17:27.416Z,101503.06
2022-08-12T18:20:06.665Z,101499.28
2022-08-12T18:22:33.467Z,101505.16
2022-08-12T18:25:00.905Z,101511.13
2022-08-12T18:27:44.472Z,101514.81
2022-08-12T18:30:16.442Z,101519.09
2022-08-12T18:32:58.465Z,101513.19
2022-08-12T18:35:29.917Z,101512.84
2022-08-12T18:38:09.240Z,101517.72
2022-08-12T18:41:06.125Z,101510.38
2022-08-12T18:43:30.658Z,101516.16
2022-08-12T18:46:10.939Z,101523.59
2022-08-12T18:48:39.793Z,101521.28
2022-08-12T18:51:09.104Z,101526.41
2022-08-12T18:54:07.180Z,101523.22
2022-08-12T18:56:33.143Z,101522.59
2022-08-12T18:59:01.400Z,101526.22
2022-08-12T19:02:18.908Z,101530.41
2022-08-12T19:04:12.312Z,101526.38
2022-08-12T19:06:38.215Z,101530.38
2022-08-12T19:09:02.216Z,101532.72
2022-08-12T19:11:43.893Z,101535.66
2022-08-12T19:14:28.184Z,101536.69
2022-08-12T19:16:52.512Z,101529.00
2022-08-12T19:19:17.359Z,101532.34
2022-08-12T19:21:56.720Z,101543.53
2022-08-12T19:24:40.048Z,101531.84
2022-08-12T19:27:06.703Z,101540.25
2022-08-12T19:29:39.552Z,101544.22
2022-08-12T19:32:11.507Z,101541.59
2022-08-12T19:38:02.584Z,101538.69
2022-08-12T19:40:32.927Z,101535.44
2022-08-12T19:43:01.527Z,101533.28
2022-08-12T19:45:43.816Z,101533.41
2022-08-12T19:48:17.240Z,101533.78
2022-08-12T19:50:41.487Z,101530.78
2022-08-12T19:53:08.198Z,101523.25
2022-08-12T19:55:39.100Z,101529.06
2022-08-12T19:58:04.793Z,101529.41
2022-08-12T20:00:28.892Z,101530.09
2022-08-12T20:03:00.704Z,101528.41
2022-08-12T20:06:04.636Z,101539.25
2022-08-12T20:08:13.194Z,101540.81
2022-08-12T20:10:47.312Z,101535.47
2022-08-12T20:13:19.283Z,101528.25
2022-08-12T20:15:51.145Z,101545.88
2022-08-12T20:18:53.403Z,101550.44
2022-08-12T20:21:14.841Z,101554.78
2022-08-12T20:24:00.521Z,101549.06
2022-08-12T20:26:24.896Z,101549.69
2022-08-12T20:28:50.781Z,101555.09
2022-08-12T20:31:14.576Z,101550.19
2022-08-12T20:33:50.755Z,101543.75
2022-08-12T20:36:40.949Z,101550.00
2022-08-12T20:39:51.158Z,101542.34
2022-08-12T20:41:58.584Z,101551.13
2022-08-12T20:44:22.374Z,101545.34
2022-08-12T20:46:46.654Z,101548.00
2022-08-12T20:49:17.395Z,101546.50
2022-08-12T20:51:54.963Z,101555.44
2022-08-12T20:54:21.503Z,101561.13
2022-08-12T20:56:45.463Z,101556.59
2022-08-12T20:59:14.695Z,101553.25
2022-08-12T21:01:47.798Z,101562.22
2022-08-12T21:04:30.776Z,101565.13
2022-08-12T21:07:08.457Z,101557.25
2022-08-12T21:09:40.631Z,101565.66
2022-08-12T21:12:31.354Z,101568.47
2022-08-12T21:14:55.499Z,101564.22
2022-08-12T21:17:22.863Z,101569.50
2022-08-12T21:20:11.422Z,101569.50
2022-08-12T21:22:40.163Z,101569.69
2022-08-12T21:25:16.866Z,101568.16
2022-08-12T21:27:58.803Z,101572.13
2022-08-12T21:30:27.367Z,101575.25
2022-08-12T21:32:58.032Z,101565.66
2022-08-12T21:35:23.397Z,101558.50
2022-08-12T21:37:53.042Z,101559.13
2022-08-12T21:40:18.788Z,101559.78
2022-08-12T21:42:43.079Z,101567.16
2022-08-12T21:45:48.335Z,101564.28
2022-08-12T21:47:57.700Z,101569.63
2022-08-12T21:50:21.607Z,101556.50
2022-08-12T21:52:50.535Z,101561.09
2022-08-12T21:55:18.515Z,101551.03
2022-08-12T21:57:51.230Z,101555.88
2022-08-12T22:00:19.071Z,101556.25
2022-08-12T22:02:59.971Z,101548.09
2022-08-12T22:05:41.423Z,101558.31
2022-08-12T22:08:08.811Z,101558.59
2022-08-12T22:10:32.524Z,101553.66
2022-08-12T22:12:58.550Z,101558.13
2022-08-12T22:15:25.091Z,101554.88
2022-08-12T22:17:55.325Z,101553.56
2022-08-12T22:20:21.734Z,101555.63
2022-08-12T22:22:53.831Z,101564.13
2022-08-12T22:25:21.847Z,101567.97
2022-08-12T22:28:02.836Z,101571.00
2022-08-12T22:30:45.791Z,101569.28
2022-08-12T22:33:15.747Z,101574.13
2022-08-12T22:35:56.000Z,101567.63
2022-08-12T22:38:26.527Z,101573.44
2022-08-12T22:40:53.201Z,101579.75
2022-08-12T22:43:35.208Z,101574.81
2022-08-12T22:46:23.404Z,101577.53
2022-08-12T22:48:54.202Z,101577.72
2022-08-12T22:51:19.383Z,101577.91
2022-08-12T22:53:44.200Z,101572.28
2022-08-12T22:56:14.339Z,101573.22
2022-08-12T22:58:40.512Z,101570.78
2022-08-12T23:01:06.880Z,101577.09
2022-08-12T23:03:47.823Z,101572.66
2022-08-12T23:06:14.204Z,101566.53
2022-08-12T23:08:38.570Z,101568.78
2022-08-12T23:11:06.051Z,101568.94
2022-08-12T23:13:55.483Z,101570.81
2022-08-12T23:16:29.079Z,101574.25
2022-08-12T23:18:55.583Z,101564.34
2022-08-12T23:21:23.683Z,101570.50
2022-08-12T23:24:09.425Z,101566.06
2022-08-12T23:26:50.380Z,101567.28
2022-08-12T23:29:29.652Z,101571.56
2022-08-12T23:32:04.167Z,101573.09
2022-08-12T23:34:33.315Z,101576.34
2022-08-12T23:36:59.587Z,101571.91
2022-08-12T23:40:13.801Z,101574.50
2022-08-12T23:42:17.442Z,101568.84
2022-08-12T23:44:42.672Z,101574.66
2022-08-12T23:47:10.033Z,101572.47
2022-08-12T23:49:57.635Z,101576.72
2022-08-12T23:52:19.368Z,101577.03
2022-08-12T23:54:46.819Z,101574.50
2022-08-12T23:57:22.283Z,101569.91
2022-08-12T23:59:55.552Z,101567.50
